createdAt,value
2022-12-18T00:01:59.796Z,62.60
2022-12-18T00:04:27.913Z,68.75
2022-12-18T00:07:07.315Z,71.55
2022-12-18T00:09:54.016Z,53.03
2022-12-18T00:12:30.329Z,72.07
2022-12-18T00:15:03.351Z,68.80
2022-12-18T00:17:30.011Z,69.28
2022-12-18T00:19:57.757Z,69.38
2022-12-18T00:22:24.366Z,67.85
2022-12-18T00:25:00.378Z,69.50
2022-12-18T00:27:35.522Z,56.85
2022-12-18T00:30:14.486Z,79.68
2022-12-18T00:32:53.679Z,67.30
2022-12-18T00:38:01.412Z,62.83
2022-12-18T00:40:32.660Z,60.78
2022-12-18T00:43:05.216Z,70.55
2022-12-18T00:48:13.127Z,55.30
2022-12-18T00:50:52.445Z,82.30
2022-12-18T00:55:59.675Z,79.28
2022-12-18T00:58:36.727Z,71.55
2022-12-18T01:01:12.894Z,60.00
2022-12-18T01:03:39.874Z,68.30
2022-12-18T01:06:13.128Z,87.50
2022-12-18T01:08:45.851Z,97.80
2022-12-18T01:14:12.133Z,60.10
2022-12-18T01:16:51.023Z,51.37
2022-12-18T01:19:38.179Z,65.03
2022-12-18T01:22:04.947Z,79.00
2022-12-18T01:24:32.715Z,61.78
2022-12-18T01:27:08.745Z,68.50
2022-12-18T01:29:35.506Z,59.87
2022-12-18T01:32:05.372Z,68.15
2022-12-18T01:34:32.191Z,66.72
2022-12-18T01:37:05.374Z,76.25
2022-12-18T01:39:41.242Z,65.25
2022-12-18T01:42:22.726Z,61.70
2022-12-18T01:45:09.919Z,59.97
2022-12-18T01:47:56.833Z,67.03
2022-12-18T01:50:40.931Z,66.45
2022-12-18T01:53:13.647Z,66.20
2022-12-18T01:55:52.412Z,74.53
2022-12-18T01:58:58.199Z,55.42
2022-12-18T02:04:27.647Z,63.15
2022-12-18T02:07:18.216Z,58.63
2022-12-18T02:10:04.631Z,70.23
2022-12-18T02:12:53.664Z,55.65
2022-12-18T02:15:25.351Z,68.15
2022-12-18T02:18:18.578Z,57.40
2022-12-18T02:20:48.374Z,56.47
2022-12-18T02:26:50.962Z,52.35
2022-12-18T02:29:29.548Z,61.50
2022-12-18T02:32:05.404Z,63.03
2022-12-18T02:37:35.272Z,60.70
2022-12-18T02:40:04.254Z,67.38
2022-12-18T02:42:36.755Z,64.68
2022-12-18T02:45:03.744Z,62.92
2022-12-18T02:47:34.780Z,61.92
2022-12-18T02:53:43.472Z,63.47
2022-12-18T02:56:39.714Z,63.92
2022-12-18T02:59:15.922Z,58.67
2022-12-18T03:01:55.358Z,55.97
2022-12-18T03:04:30.104Z,61.20
2022-12-18T03:06:59.379Z,54.10
2022-12-18T03:09:32.927Z,70.78
2022-12-18T03:12:06.124Z,61.35
2022-12-18T03:14:37.759Z,55.22
2022-12-18T03:17:07.987Z,56.93
2022-12-18T03:19:42.586Z,69.38
2022-12-18T03:22:23.992Z,65.63
2022-12-18T03:25:04.042Z,63.40
2022-12-18T03:27:52.345Z,57.53
2022-12-18T03:30:19.517Z,57.53
2022-12-18T03:35:39.866Z,54.97
2022-12-18T03:38:11.577Z,58.20
2022-12-18T03:44:15.484Z,52.07
2022-12-18T03:47:27.457Z,58.83
2022-12-18T03:50:02.657Z,57.67
2022-12-18T03:52:55.051Z,60.60
2022-12-18T03:55:35.526Z,53.30
2022-12-18T04:01:01.172Z,51.70
2022-12-18T04:03:31.558Z,44.85
2022-12-18T04:06:00.530Z,47.42
2022-12-18T04:08:28.094Z,55.90
2022-12-18T04:10:54.741Z,54.40
2022-12-18T04:13:28.502Z,58.47
2022-12-18T04:15:55.171Z,50.63
2022-12-18T04:18:21.955Z,40.95
2022-12-18T04:20:48.553Z,44.78
2022-12-18T04:23:15.195Z,53.37
2022-12-18T04:25:50.693Z,49.75
2022-12-18T04:28:26.465Z,46.28
2022-12-18T04:30:53.137Z,49.45
2022-12-18T04:33:23.116Z,45.70
2022-12-18T04:35:49.681Z,56.53
2022-12-18T04:38:26.545Z,50.35
2022-12-18T04:41:05.367Z,45.92
2022-12-18T04:43:32.036Z,53.75
2022-12-18T04:46:16.024Z,59.03
2022-12-18T04:48:54.972Z,47.13
2022-12-18T04:51:26.332Z,49.15
2022-12-18T04:54:02.457Z,44.03
2022-12-18T04:56:29.078Z,55.28
2022-12-18T04:59:11.128Z,49.78
2022-12-18T05:01:37.889Z,56.30
2022-12-18T05:04:09.816Z,44.58
2022-12-18T05:06:36.504Z,53.10
2022-12-18T05:09:09.269Z,44.08
2022-12-18T05:11:36.359Z,47.85
2022-12-18T05:14:03.089Z,46.00
2022-12-18T05:16:30.052Z,44.45
2022-12-18T05:18:56.696Z,52.95
2022-12-18T05:21:23.422Z,44.80
2022-12-18T05:23:54.898Z,46.92
2022-12-18T05:26:31.179Z,41.10
2022-12-18T05:28:57.888Z,48.95
2022-12-18T05:31:39.622Z,38.20
2022-12-18T05:34:06.843Z,39.20
2022-12-18T05:36:42.758Z,47.25
2022-12-18T05:39:38.608Z,42.53
2022-12-18T05:42:13.188Z,39.42
2022-12-18T05:47:20.323Z,41.50
2022-12-18T05:49:53.231Z,36.78
2022-12-18T05:52:19.834Z,37.10
2022-12-18T05:54:53.731Z,40.10
2022-12-18T05:57:20.387Z,30.25
2022-12-18T05:59:52.958Z,30.58
2022-12-18T06:02:19.698Z,32.40
2022-12-18T06:04:46.425Z,33.53
2022-12-18T06:07:19.132Z,31.58
2022-12-18T06:09:45.806Z,34.80
2022-12-18T06:12:12.563Z,34.78
2022-12-18T06:14:46.848Z,24.85
2022-12-18T06:17:13.615Z,27.73
2022-12-18T06:19:58.474Z,28.63
2022-12-18T06:22:40.118Z,29.55
2022-12-18T06:25:07.399Z,30.48
2022-12-18T06:27:35.756Z,27.70
2022-12-18T06:30:03.021Z,28.27
2022-12-18T06:32:44.724Z,26.70
2022-12-18T06:35:14.517Z,28.67
2022-12-18T06:37:41.150Z,27.40
2022-12-18T06:40:20.307Z,27.88
2022-12-18T06:42:46.881Z,32.30
2022-12-18T06:45:13.463Z,25.83
2022-12-18T06:47:40.055Z,28.40
2022-12-18T06:50:07.322Z,29.27
2022-12-18T06:52:34.387Z,21.80
2022-12-18T06:57:42.111Z,28.35
2022-12-18T07:00:09.266Z,28.10
2022-12-18T07:02:36.488Z,25.45
2022-12-18T07:05:08.936Z,22.92
2022-12-18T07:07:37.297Z,28.53
2022-12-18T07:10:04.690Z,26.85
2022-12-18T07:15:12.169Z,23.42
2022-12-18T07:17:38.738Z,22.92
2022-12-18T07:20:05.759Z,20.83
2022-12-18T07:22:34.972Z,25.85
2022-12-18T07:25:01.656Z,27.67
2022-12-18T07:27:28.330Z,26.95
2022-12-18T07:29:54.882Z,23.40
2022-12-18T07:35:12.109Z,27.58
2022-12-18T07:37:51.931Z,27.23
2022-12-18T07:40:18.513Z,19.35
2022-12-18T07:42:45.243Z,26.17
2022-12-18T07:45:23.331Z,24.13
2022-12-18T07:47:49.895Z,28.08
2022-12-18T07:52:57.287Z,27.95
2022-12-18T07:55:27.314Z,23.27
2022-12-18T07:57:59.218Z,23.47
2022-12-18T08:00:27.827Z,24.02
2022-12-18T08:03:00.493Z,22.50
2022-12-18T08:05:27.956Z,22.92
2022-12-18T08:07:55.026Z,27.67
2022-12-18T08:10:22.388Z,23.00
2022-12-18T08:12:52.565Z,24.63
2022-12-18T08:15:19.555Z,31.00
2022-12-18T08:17:46.157Z,27.08
2022-12-18T08:20:13.162Z,23.92
2022-12-18T08:22:39.892Z,24.30
2022-12-18T08:25:07.124Z,24.35
2022-12-18T08:27:33.737Z,32.40
2022-12-18T08:30:00.942Z,26.40
2022-12-18T08:32:28.714Z,23.95
2022-12-18T08:34:55.455Z,26.87
2022-12-18T08:37:22.145Z,24.80
2022-12-18T08:39:48.788Z,24.50
2022-12-18T08:42:15.417Z,26.80
2022-12-18T08:44:42.063Z,23.17
2022-12-18T08:47:09.140Z,24.87
2022-12-18T08:49:36.482Z,23.00
2022-12-18T08:52:15.382Z,27.38
2022-12-18T08:54:42.154Z,27.55
2022-12-18T08:57:08.914Z,26.58
2022-12-18T08:59:35.855Z,25.27
2022-12-18T09:02:05.129Z,22.90
2022-12-18T09:07:12.426Z,20.27
2022-12-18T09:09:39.172Z,23.90
2022-12-18T09:12:06.026Z,24.53
2022-12-18T09:14:52.922Z,24.02
2022-12-18T09:17:19.568Z,23.50
2022-12-18T09:19:46.423Z,17.70
2022-12-18T09:22:13.104Z,27.20
2022-12-18T09:24:43.078Z,23.83
2022-12-18T09:27:11.791Z,22.27
2022-12-18T09:29:38.385Z,23.88
2022-12-18T09:32:05.332Z,24.83
2022-12-18T09:46:06.458Z,21.42
2022-12-18T09:48:45.339Z,16.13
2022-12-18T09:51:29.935Z,23.67
2022-12-18T10:00:42.484Z,20.85
2022-12-18T10:03:25.119Z,22.02
2022-12-18T10:37:31.634Z,17.85
2022-12-18T10:40:22.792Z,22.87
2022-12-18T10:43:27.188Z,20.13
2022-12-18T10:53:08.447Z,25.63
2022-12-18T10:59:26.805Z,23.08
2022-12-18T11:09:43.068Z,22.65
2022-12-18T11:27:35.276Z,23.13
2022-12-18T11:33:22.668Z,22.73
2022-12-18T11:35:56.466Z,23.10
2022-12-18T11:38:45.325Z,24.35
2022-12-18T11:41:23.915Z,25.47
2022-12-18T11:43:57.126Z,26.45
2022-12-18T11:49:51.228Z,24.10
2022-12-18T11:55:48.999Z,23.63
2022-12-18T11:58:53.917Z,28.90
2022-12-18T12:02:13.797Z,21.33
2022-12-18T12:05:27.701Z,20.23
2022-12-18T12:08:17.550Z,21.20
2022-12-18T12:11:26.104Z,22.97
2022-12-18T12:18:11.090Z,24.52
2022-12-18T12:28:00.256Z,23.97
2022-12-18T12:34:26.000Z,23.48
2022-12-18T12:41:07.291Z,19.25
2022-12-18T12:46:27.685Z,19.38
2022-12-18T12:53:26.143Z,22.80
2022-12-18T12:55:43.904Z,23.15
2022-12-18T13:04:29.998Z,25.35
2022-12-18T13:07:24.679Z,25.52
2022-12-18T13:13:13.538Z,22.63
2022-12-18T13:16:06.893Z,23.13
2022-12-18T13:18:52.664Z,28.67
2022-12-18T13:21:33.840Z,25.77
2022-12-18T13:26:37.442Z,21.23
2022-12-18T13:32:20.980Z,23.35
2022-12-18T13:35:35.717Z,21.95
2022-12-18T13:38:31.877Z,28.08
2022-12-18T13:41:25.072Z,25.70
2022-12-18T13:47:36.026Z,22.50
2022-12-18T13:50:32.457Z,26.15
2022-12-18T13:53:40.329Z,21.95
2022-12-18T13:56:31.649Z,22.90
2022-12-18T13:59:25.069Z,22.52
2022-12-18T14:02:15.617Z,21.55
2022-12-18T14:07:49.396Z,19.83
2022-12-18T14:13:06.658Z,22.50
2022-12-18T14:15:51.229Z,22.60
2022-12-18T14:18:54.287Z,22.77
2022-12-18T14:21:31.133Z,26.65
2022-12-18T14:24:12.725Z,22.00
2022-12-18T14:30:32.467Z,22.60
2022-12-18T14:33:26.182Z,21.70
2022-12-18T14:36:20.386Z,23.90
2022-12-18T14:39:04.638Z,24.67
2022-12-18T14:41:31.352Z,23.27
2022-12-18T14:44:13.911Z,27.55
2022-12-18T14:49:33.882Z,25.88
2022-12-18T14:52:44.744Z,21.90
2022-12-18T14:55:35.641Z,26.23
2022-12-18T14:58:03.057Z,25.25
2022-12-18T15:00:47.560Z,26.83
2022-12-18T15:03:55.931Z,23.73
2022-12-18T15:06:44.576Z,28.20
2022-12-18T15:09:36.953Z,24.67
2022-12-18T15:12:48.532Z,21.75
2022-12-18T15:15:46.167Z,23.73
2022-12-18T15:18:49.227Z,26.02
2022-12-18T15:21:36.842Z,23.37
2022-12-18T15:24:03.582Z,26.13
2022-12-18T15:26:51.215Z,23.13
2022-12-18T15:29:38.899Z,27.55
2022-12-18T15:35:26.216Z,24.20
2022-12-18T15:38:08.490Z,20.33
2022-12-18T15:40:35.200Z,19.58
2022-12-18T15:43:17.198Z,19.85
2022-12-18T15:45:43.924Z,25.85
2022-12-18T15:48:22.088Z,24.07
2022-12-18T15:51:10.843Z,25.95
2022-12-18T15:53:37.715Z,24.58
2022-12-18T15:56:18.395Z,24.30
2022-12-18T15:58:54.657Z,27.40
2022-12-18T16:01:43.210Z,33.73
2022-12-18T16:04:30.693Z,26.05
2022-12-18T16:07:14.835Z,22.92
2022-12-18T16:09:54.510Z,23.27
2022-12-18T16:12:51.639Z,29.98
2022-12-18T16:15:24.506Z,27.43
2022-12-18T16:18:13.012Z,30.80
2022-12-18T16:20:51.406Z,27.35
2022-12-18T16:23:40.333Z,26.67
2022-12-18T16:26:18.869Z,25.10
2022-12-18T16:31:37.011Z,27.60
2022-12-18T16:34:23.641Z,30.42
2022-12-18T16:37:08.017Z,26.70
2022-12-18T16:39:35.943Z,25.48
2022-12-18T16:42:20.820Z,26.20
2022-12-18T16:45:09.854Z,29.70
2022-12-18T16:47:59.481Z,26.60
2022-12-18T16:50:24.299Z,28.58
2022-12-18T16:52:59.300Z,30.35
2022-12-18T16:55:27.172Z,35.20
2022-12-18T16:57:57.796Z,28.38
2022-12-18T17:00:24.584Z,30.70
2022-12-18T17:02:51.476Z,26.90
2022-12-18T17:05:30.526Z,28.55
2022-12-18T17:07:57.284Z,33.73
2022-12-18T17:10:38.604Z,27.60
2022-12-18T17:13:05.303Z,29.80
2022-12-18T17:15:42.383Z,30.05
2022-12-18T17:18:09.120Z,29.58
2022-12-18T17:23:16.307Z,32.30
2022-12-18T17:25:42.971Z,26.75
2022-12-18T17:28:26.630Z,32.15
2022-12-18T17:30:54.384Z,25.65
2022-12-18T17:33:36.595Z,29.67
2022-12-18T17:36:03.486Z,26.85
2022-12-18T17:38:30.344Z,32.35
2022-12-18T17:41:12.641Z,29.08
2022-12-18T17:43:39.667Z,27.83
2022-12-18T17:46:19.080Z,28.63
2022-12-18T17:48:45.933Z,33.90
2022-12-18T17:54:04.883Z,28.65
2022-12-18T17:56:49.691Z,29.27
2022-12-18T17:59:16.620Z,30.67
2022-12-18T18:02:00.324Z,33.40
2022-12-18T18:04:28.161Z,28.00
2022-12-18T18:07:09.033Z,31.73
2022-12-18T18:09:35.789Z,32.17
2022-12-18T18:12:02.444Z,29.87
2022-12-18T18:14:35.276Z,32.15
2022-12-18T18:17:04.742Z,33.97
2022-12-18T18:19:41.504Z,29.20
2022-12-18T18:22:10.083Z,28.83
2022-12-18T18:24:37.995Z,26.40
2022-12-18T18:27:18.482Z,31.52
2022-12-18T18:29:45.387Z,27.80
2022-12-18T18:32:12.179Z,30.42
2022-12-18T18:35:02.969Z,32.20
2022-12-18T18:40:31.432Z,26.30
2022-12-18T18:42:58.143Z,27.60
2022-12-18T18:45:24.889Z,27.90
2022-12-18T18:50:32.335Z,28.67
2022-12-18T18:52:58.987Z,31.33
2022-12-18T18:55:43.686Z,30.73
2022-12-18T18:58:10.435Z,31.08
2022-12-18T19:01:01.100Z,31.52
2022-12-18T19:03:44.039Z,30.67
2022-12-18T19:06:23.075Z,25.02
2022-12-18T19:09:05.506Z,27.58
2022-12-18T19:14:24.345Z,27.35
2022-12-18T19:16:59.781Z,27.63
2022-12-18T19:19:45.801Z,28.90
2022-12-18T19:22:25.751Z,30.10
2022-12-18T19:25:07.572Z,28.40
2022-12-18T19:28:27.247Z,32.33
2022-12-18T19:31:06.827Z,29.87
2022-12-18T19:33:48.052Z,31.42
2022-12-18T19:36:33.041Z,32.03
2022-12-18T19:39:01.767Z,36.25
2022-12-18T19:41:37.881Z,36.90
2022-12-18T19:46:45.903Z,32.42
2022-12-18T19:49:28.107Z,34.20
2022-12-18T19:52:08.012Z,29.73
2022-12-18T19:54:34.962Z,33.28
2022-12-18T19:57:11.568Z,36.87
2022-12-18T19:59:59.876Z,31.73
2022-12-18T20:02:26.652Z,33.30
2022-12-18T20:05:10.613Z,30.77
2022-12-18T20:07:53.499Z,33.35
2022-12-18T20:10:35.483Z,35.20
2022-12-18T20:13:05.027Z,39.33
2022-12-18T20:18:12.558Z,34.88
2022-12-18T20:21:01.049Z,32.28
2022-12-18T20:23:54.293Z,33.10
2022-12-18T20:26:38.922Z,39.55
2022-12-18T20:29:27.290Z,30.23
2022-12-18T20:32:15.186Z,33.95
2022-12-18T20:34:57.395Z,37.13
2022-12-18T20:37:37.847Z,29.37
2022-12-18T20:40:18.006Z,30.45
2022-12-18T20:42:54.067Z,31.48
2022-12-18T20:45:36.679Z,29.90
2022-12-18T20:50:48.495Z,27.17
2022-12-18T22:04:21.677Z,32.13
2022-12-18T22:06:49.827Z,38.70
2022-12-18T22:11:00.613Z,41.30
2022-12-18T22:13:03.819Z,40.47
2022-12-18T22:15:49.029Z,40.60
